createdAt,value
2023-03-13T07:21:52.365Z,38.24
2023-03-13T07:22:52.391Z,37.24
2023-03-13T07:23:52.376Z,37.04
2023-03-13T07:24:52.460Z,36.63
2023-03-13T07:25:52.348Z,36.63
2023-03-13T07:27:05.403Z,36.73
2023-03-13T07:27:53.325Z,36.54
2023-03-13T07:28:52.340Z,36.63
2023-03-13T07:29:52.223Z,36.43
2023-03-13T07:30:52.188Z,36.43
2023-03-13T07:31:52.247Z,36.63
2023-03-13T07:32:52.102Z,36.83
2023-03-13T07:33:52.010Z,36.93
2023-03-13T07:34:52.009Z,36.93
2023-03-13T07:35:51.878Z,36.82
2023-03-13T07:36:51.783Z,36.82
2023-03-13T07:37:51.711Z,36.82
2023-03-13T07:38:51.632Z,36.82
2023-03-13T07:39:51.607Z,36.92
2023-03-13T07:40:51.479Z,36.82
2023-03-13T07:41:51.418Z,36.82
2023-03-13T07:42:51.361Z,36.92
2023-03-13T07:43:51.321Z,36.92
2023-03-13T07:44:51.228Z,36.92
2023-03-13T07:45:51.222Z,36.92
2023-03-13T07:46:51.150Z,36.92
2023-03-13T07:47:51.050Z,37.02
2023-03-13T07:48:51.032Z,36.90
2023-03-13T07:49:50.987Z,36.90
2023-03-13T07:50:50.914Z,36.90
2023-03-13T07:51:50.822Z,36.80
2023-03-13T07:52:50.779Z,36.80
2023-03-13T07:53:50.681Z,36.70
2023-03-13T07:54:50.594Z,36.80
2023-03-13T07:55:50.532Z,36.90
2023-03-13T07:56:50.474Z,36.60
2023-03-13T07:57:50.382Z,36.60
2023-03-13T07:58:50.318Z,36.60
2023-03-13T07:59:50.239Z,36.40
2023-03-13T08:00:50.176Z,36.40
2023-03-13T08:01:50.172Z,36.38
2023-03-13T08:02:50.008Z,36.38
2023-03-13T08:03:50.099Z,36.28
2023-03-13T08:04:49.878Z,36.38
2023-03-13T08:05:49.812Z,36.28
2023-03-13T08:06:49.775Z,36.18
2023-03-13T08:07:49.663Z,36.48
2023-03-13T08:08:49.598Z,36.28
2023-03-13T08:09:49.520Z,36.48
2023-03-13T08:10:49.394Z,36.48
2023-03-13T08:11:49.348Z,36.38
2023-03-13T08:12:49.241Z,36.38
2023-03-13T08:13:49.176Z,36.28
2023-03-13T08:14:49.118Z,36.28
2023-03-13T08:15:49.052Z,36.18
2023-03-13T08:16:49.158Z,36.38
2023-03-13T08:17:48.901Z,36.38
2023-03-13T08:18:48.827Z,36.18
2023-03-13T08:19:48.765Z,36.18
2023-03-13T08:20:48.694Z,36.18
2023-03-13T08:21:48.619Z,36.08
2023-03-13T08:22:48.578Z,36.18
2023-03-13T08:23:48.482Z,36.08
2023-03-13T08:24:48.384Z,35.98
2023-03-13T08:25:48.372Z,36.08
2023-03-13T08:26:48.218Z,35.88
2023-03-13T08:27:48.188Z,35.98
2023-03-13T08:28:48.088Z,36.08
2023-03-13T08:29:48.007Z,36.08
2023-03-13T08:30:48.057Z,35.98
2023-03-13T08:31:47.946Z,36.08
2023-03-13T08:32:47.853Z,35.96
2023-03-13T08:33:47.716Z,35.86
2023-03-13T08:34:47.652Z,35.76
2023-03-13T08:35:47.608Z,35.86
2023-03-13T08:36:47.542Z,35.76
2023-03-13T08:37:47.470Z,35.76
2023-03-13T08:38:47.354Z,35.66
2023-03-13T08:39:47.271Z,35.76
2023-03-13T08:40:47.194Z,35.76
2023-03-13T08:45:15.365Z,61.20
2023-03-13T08:46:25.601Z,71.05
2023-03-13T08:47:15.521Z,77.91
2023-03-13T08:48:15.590Z,83.69
2023-03-13T08:49:15.663Z,88.33
2023-03-13T08:50:15.774Z,90.94
2023-03-13T08:53:52.705Z,93.14
2023-03-13T09:04:36.966Z,91.74
2023-03-13T09:06:27.608Z,84.09
2023-03-13T09:15:31.410Z,94.02
2023-03-13T09:16:31.471Z,93.71
2023-03-13T09:17:31.518Z,93.40
2023-03-13T09:20:00.050Z,93.05
2023-03-13T09:20:53.995Z,93.05
2023-03-13T09:21:53.064Z,93.16
2023-03-13T09:22:53.192Z,93.46
2023-03-13T09:23:53.255Z,93.67
2023-03-13T09:24:53.294Z,93.77
2023-03-13T09:25:53.471Z,93.77
2023-03-13T09:27:01.133Z,94.08
2023-03-13T09:27:54.575Z,93.77
2023-03-13T09:28:53.619Z,93.87
2023-03-13T09:29:53.711Z,94.12
2023-03-13T09:30:53.842Z,93.87
2023-03-13T09:31:53.909Z,94.18
2023-03-13T09:32:54.089Z,94.29
2023-03-13T09:33:54.107Z,94.18
2023-03-13T09:34:54.210Z,94.39
2023-03-13T09:35:54.393Z,94.49
2023-03-13T09:36:54.381Z,94.59
2023-03-13T09:37:54.519Z,94.70
2023-03-13T09:39:36.841Z,94.80
2023-03-13T09:40:36.871Z,94.80
2023-03-13T09:41:36.969Z,95.01
2023-03-13T09:42:37.018Z,94.90
2023-03-13T09:43:37.122Z,95.21
2023-03-13T09:44:37.179Z,95.01
2023-03-13T09:45:37.264Z,94.95
2023-03-13T09:46:37.401Z,95.36
2023-03-13T09:47:37.394Z,95.31
2023-03-13T09:48:37.501Z,95.62
2023-03-13T09:49:37.581Z,95.87
2023-03-13T09:50:37.682Z,95.93
2023-03-13T09:51:37.774Z,96.14
2023-03-13T09:52:37.832Z,96.14
2023-03-13T09:53:37.908Z,96.34
2023-03-13T09:54:38.007Z,96.14
2023-03-13T09:55:38.114Z,96.03
2023-03-13T09:56:38.217Z,95.83
2023-03-13T09:57:38.291Z,95.83
2023-03-13T09:58:38.327Z,95.72
2023-03-13T09:59:38.400Z,95.52
2023-03-13T10:00:38.486Z,95.62
2023-03-13T10:01:38.694Z,95.62
2023-03-13T10:02:38.668Z,95.72
2023-03-13T10:03:38.750Z,95.62
2023-03-13T10:04:41.627Z,95.62
2023-03-13T10:05:38.949Z,95.57
2023-03-13T10:06:39.031Z,95.57
2023-03-13T10:07:39.133Z,95.37
2023-03-13T10:08:39.172Z,95.17
2023-03-13T10:09:39.256Z,95.27
2023-03-13T10:10:39.361Z,94.96
2023-03-13T10:11:39.404Z,95.06
2023-03-13T10:12:39.520Z,94.55
2023-03-13T10:13:39.622Z,94.85
2023-03-13T10:14:39.655Z,94.61
2023-03-13T10:15:39.781Z,94.85
2023-03-13T10:16:39.835Z,94.76
2023-03-13T10:17:39.969Z,94.85
2023-03-13T10:18:40.010Z,95.02
2023-03-13T10:19:40.089Z,94.76
2023-03-13T10:20:40.154Z,95.32
2023-03-13T10:21:40.209Z,95.64
2023-03-13T10:22:40.297Z,95.78
2023-03-13T10:23:40.352Z,95.68
2023-03-13T10:24:40.475Z,95.94
2023-03-13T10:25:40.556Z,95.64
2023-03-13T10:26:40.598Z,95.64
2023-03-13T10:27:40.682Z,95.23
2023-03-13T10:28:40.783Z,95.32
2023-03-13T10:29:40.874Z,95.32
2023-03-13T10:30:40.959Z,95.23
2023-03-13T10:31:41.039Z,95.74
2023-03-13T10:32:41.138Z,95.39
2023-03-13T10:33:41.197Z,95.28
2023-03-13T10:34:41.292Z,94.87
2023-03-13T10:35:41.363Z,95.18
2023-03-13T10:36:41.428Z,95.28
2023-03-13T10:37:41.489Z,95.28
2023-03-13T10:38:41.566Z,95.39
2023-03-13T10:39:41.704Z,94.42
2023-03-13T10:40:41.741Z,94.15
2023-03-13T10:41:41.830Z,93.90
2023-03-13T10:42:41.886Z,94.01
2023-03-13T10:43:41.949Z,93.70
2023-03-13T10:44:42.092Z,93.70
2023-03-13T10:45:42.101Z,93.49
2023-03-13T10:46:42.279Z,93.90
2023-03-13T10:47:42.308Z,93.25
2023-03-13T10:48:42.374Z,92.83
2023-03-13T10:49:42.476Z,93.25
2023-03-13T10:50:42.570Z,92.94
2023-03-13T10:51:42.696Z,92.90
2023-03-13T10:52:42.797Z,92.90
2023-03-13T10:53:42.847Z,92.49
2023-03-13T10:54:42.949Z,91.77
2023-03-13T10:55:43.028Z,91.67
2023-03-13T10:56:43.122Z,92.65
2023-03-13T10:57:43.257Z,92.03
2023-03-13T10:58:43.336Z,91.52
2023-03-13T10:59:43.378Z,91.48
2023-03-13T11:00:43.473Z,91.78
2023-03-13T11:01:43.546Z,90.97
2023-03-13T11:02:43.717Z,91.27
2023-03-13T11:03:43.907Z,90.00
2023-03-13T11:04:43.804Z,90.92
2023-03-13T11:05:43.892Z,91.44
2023-03-13T11:06:43.989Z,90.41
2023-03-13T11:07:44.093Z,90.11
2023-03-13T11:08:44.176Z,90.00
2023-03-13T11:09:44.216Z,90.92
2023-03-13T11:10:44.287Z,90.72
2023-03-13T11:11:44.388Z,90.00
2023-03-13T11:12:44.498Z,90.11
2023-03-13T11:13:44.618Z,89.59
2023-03-13T11:14:44.651Z,88.64
2023-03-13T11:15:44.821Z,89.35
2023-03-13T11:16:44.851Z,90.06
2023-03-13T11:17:44.919Z,88.84
2023-03-13T11:18:45.031Z,88.94
2023-03-13T11:19:45.115Z,89.11
2023-03-13T11:20:45.204Z,88.90
2023-03-13T11:21:45.331Z,87.26
2023-03-13T11:22:45.336Z,87.53
2023-03-13T11:23:45.419Z,87.02
2023-03-13T11:24:45.555Z,87.02
2023-03-13T11:25:45.623Z,86.98
2023-03-13T11:26:52.410Z,86.67
2023-03-13T11:27:46.768Z,87.14
2023-03-13T11:28:45.938Z,87.14
2023-03-13T11:29:46.010Z,86.22
2023-03-13T11:30:46.006Z,86.02
2023-03-13T11:31:46.130Z,86.02
2023-03-13T11:32:46.253Z,85.82
2023-03-13T11:33:46.256Z,85.16
2023-03-13T11:34:46.368Z,85.37
2023-03-13T11:35:46.513Z,85.37
2023-03-13T11:36:46.583Z,83.63
2023-03-13T11:37:46.582Z,84.25
2023-03-13T11:38:46.696Z,84.04
2023-03-13T11:39:46.771Z,84.45
2023-03-13T11:40:46.889Z,83.73
2023-03-13T11:41:46.992Z,83.94
2023-03-13T11:42:47.094Z,82.82
2023-03-13T11:43:47.107Z,81.80
2023-03-13T11:44:47.194Z,82.51
2023-03-13T11:45:47.421Z,84.00
2023-03-13T11:46:47.541Z,83.49
2023-03-13T11:47:47.510Z,83.09
2023-03-13T11:48:47.534Z,81.86
2023-03-13T11:49:47.655Z,82.94
2023-03-13T11:50:47.750Z,81.31
2023-03-13T11:51:47.795Z,81.82
2023-03-13T11:52:47.979Z,81.01
2023-03-13T11:53:47.990Z,81.72
2023-03-13T11:54:48.081Z,80.80
2023-03-13T11:55:48.164Z,80.56
2023-03-13T11:56:48.255Z,80.09
2023-03-13T11:57:48.379Z,79.68
2023-03-13T11:58:48.431Z,79.99
2023-03-13T11:59:48.519Z,80.50
2023-03-13T12:00:48.618Z,79.89
2023-03-13T12:01:48.854Z,80.19
2023-03-13T12:02:48.790Z,79.68
2023-03-13T12:03:48.997Z,80.29
2023-03-13T12:04:49.064Z,79.68
2023-03-13T12:05:49.049Z,81.31
2023-03-13T12:06:49.141Z,80.77
2023-03-13T12:07:49.265Z,80.05
2023-03-13T12:08:49.336Z,80.05
2023-03-13T12:09:49.495Z,80.66
2023-03-13T12:10:49.498Z,80.05
2023-03-13T12:11:49.582Z,79.34
2023-03-13T12:12:49.686Z,80.66
2023-03-13T12:13:49.740Z,79.14
2023-03-13T12:14:49.875Z,79.20
2023-03-13T12:15:49.930Z,78.59
2023-03-13T12:16:50.058Z,78.69
2023-03-13T12:17:50.155Z,77.33
2023-03-13T12:18:50.239Z,77.23
2023-03-13T12:19:50.300Z,78.72
2023-03-13T12:20:50.369Z,77.29
2023-03-13T12:21:50.550Z,76.68
2023-03-13T12:22:50.536Z,77.81
2023-03-13T12:23:50.664Z,77.40
2023-03-13T12:24:50.688Z,77.26
2023-03-13T12:25:50.790Z,76.79
2023-03-13T12:26:50.825Z,76.18
2023-03-13T12:27:50.933Z,76.55
2023-03-13T12:28:51.041Z,76.14
2023-03-13T12:29:51.151Z,75.43
2023-03-13T12:30:51.253Z,76.72
2023-03-13T12:31:51.249Z,75.19
2023-03-13T12:32:51.392Z,74.88
2023-03-13T12:33:51.535Z,76.01
2023-03-13T12:34:51.557Z,74.58
2023-03-13T12:35:51.678Z,74.95
2023-03-13T12:36:51.680Z,75.56
2023-03-13T12:37:51.799Z,73.80
2023-03-13T12:38:51.876Z,72.99
2023-03-13T12:39:51.994Z,74.17
2023-03-13T12:40:52.109Z,72.45
2023-03-13T12:41:52.180Z,72.92
2023-03-13T12:42:52.215Z,71.47
2023-03-13T12:44:07.305Z,70.96
2023-03-13T12:44:53.342Z,70.15
2023-03-13T12:45:52.548Z,71.30
2023-03-13T12:46:52.588Z,71.09
2023-03-13T12:47:52.656Z,71.37
2023-03-13T12:48:52.684Z,71.47
2023-03-13T12:49:52.840Z,69.92
2023-03-13T12:50:52.897Z,69.07
2023-03-13T12:51:52.922Z,69.57
2023-03-13T12:52:53.017Z,69.71
2023-03-13T12:55:21.332Z,68.56
2023-03-13T12:56:21.417Z,69.01
2023-03-13T12:57:21.511Z,66.64
2023-03-13T12:58:34.845Z,66.11
2023-03-13T12:59:21.649Z,66.72
2023-03-13T13:00:21.746Z,65.14
2023-03-13T13:01:21.940Z,63.22
2023-03-13T13:02:21.963Z,64.06
2023-03-13T13:03:22.046Z,63.96
2023-03-13T13:04:22.151Z,63.39
2023-03-13T13:05:22.200Z,63.36
2023-03-13T13:06:22.247Z,63.39
2023-03-13T13:07:22.357Z,63.52
2023-03-13T13:08:22.441Z,62.35
2023-03-13T13:09:22.505Z,62.52
2023-03-13T13:10:22.623Z,61.11
2023-03-13T13:11:24.349Z,62.09
2023-03-13T13:12:22.853Z,62.29
2023-03-13T13:13:22.915Z,61.36
2023-03-13T13:14:22.990Z,59.75
2023-03-13T13:15:23.059Z,61.32
2023-03-13T13:16:23.207Z,61.18
2023-03-13T13:17:23.365Z,61.66
2023-03-13T13:18:23.334Z,60.25
2023-03-13T13:19:23.397Z,60.28
2023-03-13T13:20:23.503Z,61.01
2023-03-13T13:21:23.635Z,62.43
2023-03-13T13:22:23.723Z,61.41
2023-03-13T13:23:23.816Z,60.98
2023-03-13T13:24:23.874Z,61.14
2023-03-13T13:25:23.942Z,62.48
2023-03-13T13:26:24.021Z,63.05
2023-03-13T13:27:24.081Z,64.49
2023-03-13T13:28:24.372Z,64.29
2023-03-13T13:29:24.400Z,65.33
2023-03-13T13:30:24.394Z,65.84
2023-03-13T13:31:24.677Z,65.43
2023-03-13T13:32:24.518Z,65.53
2023-03-13T13:33:24.587Z,65.91
2023-03-13T13:34:24.735Z,63.73
2023-03-13T13:35:24.780Z,62.82
2023-03-13T13:36:24.857Z,62.68
2023-03-13T13:37:24.981Z,63.46
2023-03-13T13:38:25.022Z,62.02
2023-03-13T13:39:25.122Z,60.71
2023-03-13T13:40:25.168Z,60.64
2023-03-13T13:41:25.343Z,60.64
2023-03-13T13:42:25.365Z,61.88
2023-03-13T13:43:25.491Z,62.21
2023-03-13T13:44:25.566Z,62.82
2023-03-13T13:45:25.761Z,62.14
2023-03-13T13:46:25.747Z,63.55
2023-03-13T13:47:25.828Z,62.87
2023-03-13T13:48:25.879Z,64.22
2023-03-13T13:49:25.989Z,64.12
2023-03-13T13:50:26.068Z,65.03
2023-03-13T13:51:26.159Z,64.93
2023-03-13T13:52:26.246Z,64.79
2023-03-13T13:53:26.284Z,65.64
2023-03-13T13:54:26.391Z,64.70
2023-03-13T13:55:26.539Z,65.03
2023-03-13T13:56:26.733Z,65.10
2023-03-13T13:57:26.642Z,64.73
2023-03-13T13:58:26.751Z,64.19
2023-03-13T13:59:26.801Z,64.93
2023-03-13T14:00:26.924Z,65.23
2023-03-13T14:01:27.106Z,64.42
2023-03-13T14:02:27.067Z,65.36
2023-03-13T14:03:27.158Z,64.52
2023-03-13T14:04:27.244Z,65.26
2023-03-13T14:05:27.370Z,64.96
2023-03-13T14:06:27.461Z,65.06
2023-03-13T14:07:27.675Z,65.39
2023-03-13T14:08:27.602Z,65.97
2023-03-13T14:09:27.693Z,65.53
2023-03-13T14:10:27.770Z,65.36
2023-03-13T14:11:27.931Z,65.36
2023-03-13T14:12:27.949Z,65.23
2023-03-13T14:13:28.089Z,64.22
2023-03-13T14:14:28.128Z,64.90
2023-03-13T14:15:28.218Z,64.26
2023-03-13T14:16:28.407Z,62.62
2023-03-13T14:17:28.414Z,61.55
2023-03-13T14:18:28.556Z,61.07
2023-03-13T14:19:28.595Z,61.37
2023-03-13T14:20:28.687Z,63.19
2023-03-13T14:21:28.755Z,61.98
2023-03-13T14:22:28.827Z,61.71
2023-03-13T14:23:29.012Z,61.80
2023-03-13T14:24:28.986Z,63.45
2023-03-13T14:25:29.081Z,64.36
2023-03-13T14:26:29.173Z,62.85
2023-03-13T14:27:29.273Z,63.02
2023-03-13T14:28:29.395Z,61.44
2023-03-13T14:29:29.459Z,61.01
2023-03-13T14:30:29.482Z,58.64
2023-03-13T14:31:29.651Z,57.68
2023-03-13T14:32:29.700Z,56.51
2023-03-13T14:33:29.781Z,55.31
2023-03-13T14:34:32.685Z,55.68
2023-03-13T14:35:29.940Z,54.85
2023-03-13T14:36:30.048Z,55.56
2023-03-13T14:37:30.129Z,57.83
2023-03-13T14:38:30.221Z,59.60
2023-03-13T14:39:30.349Z,60.53
2023-03-13T14:40:30.401Z,61.68
2023-03-13T14:41:30.493Z,62.21
2023-03-13T14:42:30.557Z,61.83
2023-03-13T14:43:30.658Z,62.74
2023-03-13T14:44:30.790Z,63.28
2023-03-13T14:45:30.821Z,63.31
2023-03-13T14:46:30.997Z,63.92
2023-03-13T14:47:31.045Z,65.10
2023-03-13T14:48:31.032Z,64.42
2023-03-13T14:49:31.218Z,64.62
2023-03-13T14:50:31.237Z,65.33
2023-03-13T14:51:31.323Z,64.83
2023-03-13T14:52:31.449Z,64.52
2023-03-13T14:53:31.503Z,65.03
2023-03-13T14:54:31.634Z,64.12
2023-03-13T14:55:31.710Z,64.76
2023-03-13T14:56:31.814Z,65.56
2023-03-13T14:57:31.848Z,64.76
2023-03-13T14:58:31.932Z,65.06
2023-03-13T14:59:32.049Z,65.29
2023-03-13T15:00:32.157Z,66.27
2023-03-13T15:01:32.202Z,66.47
2023-03-13T15:02:32.312Z,65.70
2023-03-13T15:03:32.350Z,66.17
2023-03-13T15:04:32.446Z,65.06
2023-03-13T15:05:32.562Z,62.14
2023-03-13T15:06:32.602Z,63.05
2023-03-13T15:07:32.655Z,60.84
2023-03-13T15:08:32.746Z,58.56
2023-03-13T15:09:32.847Z,57.73
2023-03-13T15:10:32.950Z,58.89
2023-03-13T15:11:33.035Z,57.83
2023-03-13T15:12:33.081Z,57.17
2023-03-13T15:13:33.232Z,56.49
2023-03-13T15:14:33.258Z,58.09
2023-03-13T15:15:33.317Z,59.50
2023-03-13T15:16:33.518Z,60.03
2023-03-13T15:17:33.510Z,60.33
2023-03-13T15:18:33.604Z,60.49
2023-03-13T15:19:33.678Z,62.14
2023-03-13T15:20:33.787Z,62.44
2023-03-13T15:21:33.910Z,62.47
2023-03-13T15:22:33.949Z,63.51
2023-03-13T15:23:34.055Z,64.12
2023-03-13T15:24:34.122Z,64.83
2023-03-13T15:25:34.198Z,64.04
2023-03-13T15:26:34.269Z,64.35
2023-03-13T15:27:34.403Z,65.06
2023-03-13T15:28:34.435Z,64.35
2023-03-13T15:29:34.494Z,64.79
2023-03-13T15:30:34.592Z,65.56
2023-03-13T15:31:34.719Z,65.16
2023-03-13T15:32:34.831Z,65.26
2023-03-13T15:33:34.841Z,65.06
2023-03-13T15:34:34.931Z,63.89
2023-03-13T15:35:35.049Z,62.74
2023-03-13T15:36:35.110Z,62.44
2023-03-13T15:37:35.242Z,63.35
2023-03-13T15:38:35.346Z,63.05
2023-03-13T15:39:35.383Z,63.05
2023-03-13T15:40:35.443Z,63.58
2023-03-13T15:41:35.519Z,64.62
2023-03-13T15:42:35.617Z,64.96
2023-03-13T15:43:35.726Z,65.70
2023-03-13T15:44:35.794Z,66.10
2023-03-13T15:45:35.962Z,66.41
2023-03-13T15:46:35.978Z,66.61
2023-03-13T15:47:36.066Z,67.35
2023-03-13T15:48:36.263Z,67.14
2023-03-13T15:49:36.236Z,67.45
2023-03-13T15:50:36.320Z,67.76
2023-03-13T15:51:36.409Z,67.79
2023-03-13T15:52:36.471Z,68.49
2023-03-13T15:53:36.570Z,68.29
2023-03-13T15:54:36.631Z,68.49
2023-03-13T15:55:36.711Z,68.49
2023-03-13T15:56:36.843Z,68.90
2023-03-13T15:57:36.916Z,68.90
2023-03-13T15:58:36.957Z,68.73
2023-03-13T15:59:37.260Z,69.10
2023-03-13T16:00:37.111Z,69.34
2023-03-13T16:01:37.239Z,69.13
2023-03-13T16:02:37.324Z,69.24
2023-03-13T16:03:37.390Z,69.34
2023-03-13T16:04:37.528Z,69.64
2023-03-13T16:05:37.589Z,69.95
2023-03-13T16:06:37.667Z,69.95
2023-03-13T16:07:37.747Z,69.95
2023-03-13T16:08:37.832Z,69.74
2023-03-13T16:09:37.955Z,69.57
2023-03-13T16:10:38.041Z,69.78
2023-03-13T16:11:38.086Z,69.98
2023-03-13T16:12:38.153Z,69.88
2023-03-13T16:13:38.249Z,69.98
2023-03-13T16:14:38.319Z,69.98
2023-03-13T16:15:38.509Z,70.39
2023-03-13T16:16:38.562Z,70.59
2023-03-13T16:17:38.608Z,70.39
2023-03-13T16:18:38.693Z,70.48
2023-03-13T16:19:38.824Z,70.39
2023-03-13T16:20:38.906Z,70.42
2023-03-13T16:21:38.992Z,70.28
2023-03-13T16:22:39.040Z,70.52
2023-03-13T16:23:39.132Z,70.39
2023-03-13T16:24:39.224Z,70.59
2023-03-13T16:25:39.332Z,70.62
2023-03-13T16:26:39.449Z,70.52
2023-03-13T16:27:39.526Z,70.52
2023-03-13T16:28:39.568Z,70.42
2023-03-13T16:29:39.640Z,70.52
2023-03-13T16:30:39.730Z,70.72
2023-03-13T16:31:39.896Z,70.62
2023-03-13T16:32:39.998Z,70.92
2023-03-13T16:33:39.994Z,70.52
2023-03-13T16:34:40.064Z,70.42
2023-03-13T16:35:40.203Z,71.03
2023-03-13T16:36:40.266Z,70.72
2023-03-13T16:37:40.408Z,70.42
2023-03-13T16:38:40.423Z,70.92
2023-03-13T16:39:40.521Z,70.62
2023-03-13T16:40:40.610Z,71.13
2023-03-13T16:41:40.703Z,70.92
2023-03-13T16:42:40.837Z,70.83
2023-03-13T16:43:40.897Z,71.13
2023-03-13T16:44:40.973Z,71.06
2023-03-13T16:45:41.116Z,71.26
2023-03-13T16:46:41.294Z,71.16
2023-03-13T16:47:41.261Z,71.36
2023-03-13T16:48:41.397Z,71.47
2023-03-13T16:49:41.431Z,71.47
2023-03-13T16:50:41.517Z,71.16
2023-03-13T16:51:41.597Z,71.26
2023-03-13T16:52:41.679Z,71.26
2023-03-13T16:53:41.828Z,71.26
2023-03-13T16:54:41.911Z,71.26
2023-03-13T16:55:41.984Z,71.06
2023-03-13T16:56:42.031Z,71.47
2023-03-13T16:57:42.132Z,71.26
2023-03-13T16:58:42.228Z,71.47
2023-03-13T16:59:42.290Z,71.26
2023-03-13T17:00:42.395Z,71.16
2023-03-13T17:01:42.470Z,71.36
2023-03-13T17:02:42.571Z,71.47
2023-03-13T17:03:42.661Z,71.26
2023-03-13T17:04:44.693Z,71.26
2023-03-13T17:05:42.844Z,71.26
2023-03-13T17:06:42.911Z,71.26
2023-03-13T17:07:43.008Z,71.47
2023-03-13T17:08:43.066Z,71.30
2023-03-13T17:09:43.135Z,71.40
2023-03-13T17:10:43.261Z,71.67
2023-03-13T17:11:43.330Z,71.91
2023-03-13T17:12:43.412Z,71.91
2023-03-13T17:13:43.522Z,72.21
2023-03-13T17:14:43.643Z,72.11
2023-03-13T17:15:43.742Z,72.52
2023-03-13T17:16:43.776Z,72.21
2023-03-13T17:17:45.531Z,72.62
2023-03-13T17:18:43.983Z,72.34
2023-03-13T17:19:44.055Z,72.62
2023-03-13T17:20:44.178Z,72.52
2023-03-13T17:21:44.238Z,72.41
2023-03-13T17:22:44.334Z,72.41
2023-03-13T17:23:44.440Z,72.62
2023-03-13T17:24:44.559Z,72.31
2023-03-13T17:25:44.618Z,72.55
2023-03-13T17:26:44.737Z,72.55
2023-03-13T17:27:44.776Z,72.55
2023-03-13T17:28:44.870Z,72.65
2023-03-13T17:29:44.962Z,72.65
2023-03-13T17:30:45.078Z,72.75
2023-03-13T17:31:45.155Z,72.85
2023-03-13T17:32:45.233Z,72.85
2023-03-13T17:33:45.328Z,72.75
2023-03-13T17:34:45.411Z,72.96
2023-03-13T17:35:45.524Z,72.75
2023-03-13T17:36:45.571Z,73.06
2023-03-13T17:37:45.607Z,72.85
2023-03-13T17:38:45.737Z,73.06
2023-03-13T17:39:45.795Z,72.75
2023-03-13T17:40:45.867Z,72.75
2023-03-13T17:41:45.935Z,72.85
2023-03-13T17:42:46.101Z,72.65
2023-03-13T17:43:46.116Z,72.75
2023-03-13T17:44:46.235Z,72.75
2023-03-13T17:45:46.278Z,72.96
2023-03-13T17:46:46.434Z,73.06
2023-03-13T17:47:46.439Z,73.16
2023-03-13T17:48:46.541Z,73.26
2023-03-13T17:49:46.625Z,73.30
2023-03-13T17:50:46.678Z,73.50
2023-03-13T17:51:46.742Z,73.50
2023-03-13T17:52:46.868Z,73.70
2023-03-13T17:53:46.920Z,73.80
2023-03-13T17:54:47.017Z,73.80
2023-03-13T17:55:47.102Z,73.80
2023-03-13T17:56:47.194Z,73.80
2023-03-13T17:57:47.313Z,73.80
2023-03-13T17:58:47.359Z,73.80
2023-03-13T17:59:47.456Z,73.91
2023-03-13T18:00:47.611Z,73.80
2023-03-13T18:01:47.706Z,74.01
2023-03-13T18:02:47.802Z,73.91
2023-03-13T18:03:47.805Z,73.80
2023-03-13T18:04:47.873Z,74.11
2023-03-13T18:05:48.008Z,74.21
2023-03-13T18:06:48.044Z,74.01
2023-03-13T18:07:48.146Z,74.41
2023-03-13T18:08:48.242Z,74.21
2023-03-13T18:09:48.364Z,74.31
2023-03-13T18:10:48.421Z,74.31
2023-03-13T18:11:48.514Z,74.21
2023-03-13T18:12:48.590Z,74.41
2023-03-13T18:13:48.656Z,74.21
2023-03-13T18:14:48.776Z,74.55
2023-03-13T18:15:48.874Z,74.41
2023-03-13T18:16:48.954Z,74.41
2023-03-13T18:17:49.004Z,74.21
2023-03-13T18:18:49.104Z,74.11
2023-03-13T18:19:49.229Z,74.11
2023-03-13T18:20:49.266Z,74.11
2023-03-13T18:21:49.415Z,74.11
2023-03-13T18:22:49.452Z,74.11
2023-03-13T18:23:49.540Z,74.21
2023-03-13T18:24:49.665Z,74.21
2023-03-13T18:25:49.719Z,74.41
2023-03-13T18:26:49.839Z,74.52
2023-03-13T18:27:49.876Z,74.72
2023-03-13T18:28:49.962Z,74.52
2023-03-13T18:29:50.059Z,74.76
2023-03-13T18:30:50.192Z,74.85
2023-03-13T18:31:50.333Z,74.72
2023-03-13T18:32:50.382Z,74.72
2023-03-13T18:33:50.401Z,74.52
2023-03-13T18:34:50.506Z,74.31
2023-03-13T18:35:50.698Z,74.41
2023-03-13T18:36:50.668Z,74.41
2023-03-13T18:37:50.780Z,74.41
2023-03-13T18:38:50.826Z,74.31
2023-03-13T18:39:50.915Z,74.41
2023-03-13T18:40:51.011Z,74.31
2023-03-13T18:41:51.099Z,74.31
2023-03-13T18:42:51.232Z,74.41
2023-03-13T18:43:51.313Z,74.52
2023-03-13T18:44:51.364Z,74.41
2023-03-13T18:45:51.456Z,74.52
2023-03-13T18:46:53.130Z,74.52
2023-03-13T18:47:51.594Z,74.52
2023-03-13T18:48:51.715Z,74.52
2023-03-13T18:49:51.765Z,74.52
2023-03-13T18:50:51.853Z,74.31
2023-03-13T18:51:51.923Z,74.52
2023-03-13T18:52:52.070Z,74.41
2023-03-13T18:53:52.107Z,74.21
2023-03-13T18:54:52.202Z,74.41
2023-03-13T18:55:52.294Z,74.52
2023-03-13T18:56:52.423Z,74.62
2023-03-13T18:57:52.536Z,74.82
2023-03-13T18:58:52.605Z,74.82
2023-03-13T18:59:52.674Z,74.82
2023-03-13T19:00:52.884Z,74.62
2023-03-13T19:01:52.912Z,74.72
2023-03-13T19:02:53.000Z,74.72
2023-03-13T19:03:53.035Z,74.72
2023-03-13T19:04:53.129Z,74.72
2023-03-13T19:05:53.169Z,74.62
2023-03-13T19:06:53.262Z,74.92
2023-03-13T19:07:53.342Z,74.76
2023-03-13T19:08:53.417Z,74.92
2023-03-13T19:09:53.550Z,75.06
2023-03-13T19:10:53.587Z,75.06
2023-03-13T19:11:53.702Z,74.96
2023-03-13T19:12:53.746Z,75.16
2023-03-13T19:13:53.829Z,75.16
2023-03-13T19:14:53.912Z,75.26
2023-03-13T19:15:54.005Z,75.26
2023-03-13T19:16:54.135Z,75.26
2023-03-13T19:17:54.172Z,75.46
2023-03-13T19:18:54.241Z,75.46
2023-03-13T19:19:54.374Z,75.46
2023-03-13T19:20:54.418Z,75.57
2023-03-13T19:21:54.473Z,75.57
2023-03-13T19:22:55.971Z,75.67
2023-03-13T19:23:54.662Z,75.67
2023-03-13T19:24:54.782Z,75.77
2023-03-13T19:25:54.890Z,75.70
2023-03-13T19:26:54.948Z,75.60
2023-03-13T19:27:54.983Z,75.70
2023-03-13T19:28:55.094Z,75.50
2023-03-13T19:29:55.183Z,75.60
2023-03-13T19:30:55.258Z,75.57
2023-03-13T19:31:55.469Z,75.60
2023-03-13T19:32:55.500Z,75.70
2023-03-13T19:33:55.538Z,75.60
2023-03-13T19:34:55.631Z,75.60
2023-03-13T19:35:55.743Z,75.57
2023-03-13T19:36:55.848Z,75.70
2023-03-13T19:37:55.942Z,75.50
2023-03-13T19:38:55.957Z,75.26
2023-03-13T19:39:56.018Z,75.16
2023-03-13T19:40:56.104Z,75.06
2023-03-13T19:41:58.256Z,75.16
2023-03-13T19:42:56.299Z,75.16
2023-03-13T19:43:56.331Z,75.30
2023-03-13T19:44:56.432Z,75.37
2023-03-13T19:45:56.511Z,75.50
2023-03-13T19:46:56.562Z,75.70
2023-03-13T19:47:56.713Z,75.70
2023-03-13T19:48:56.766Z,75.70
2023-03-13T19:49:58.081Z,75.70
2023-03-13T19:50:56.925Z,75.81
2023-03-13T19:51:56.994Z,75.91
2023-03-13T19:52:57.116Z,76.01
2023-03-13T19:53:57.220Z,76.11
2023-03-13T19:54:57.248Z,76.21
2023-03-13T19:55:57.348Z,76.31
2023-03-13T19:56:57.440Z,76.65
2023-03-13T19:57:57.622Z,76.56
2023-03-13T19:58:57.626Z,76.65
2023-03-13T19:59:57.673Z,76.56
2023-03-13T20:01:00.704Z,76.56
2023-03-13T20:01:58.873Z,76.56
2023-03-13T20:02:57.980Z,76.56
2023-03-13T20:03:58.021Z,76.56
2023-03-13T20:04:58.114Z,76.65
2023-03-13T20:05:58.164Z,76.65
2023-03-13T20:06:58.256Z,76.65
2023-03-13T20:07:58.360Z,76.76
2023-03-13T20:08:58.439Z,76.76
2023-03-13T20:09:58.601Z,76.76
2023-03-13T20:10:58.628Z,76.86
2023-03-13T20:11:58.730Z,76.76
2023-03-13T20:12:58.817Z,76.86
2023-03-13T20:13:58.887Z,76.96
2023-03-13T20:14:59.012Z,77.06
2023-03-13T20:15:59.082Z,77.17
2023-03-13T20:16:59.152Z,77.17
2023-03-13T20:17:59.246Z,77.37
2023-03-13T20:18:59.319Z,77.61
2023-03-13T20:19:59.442Z,77.47
2023-03-13T20:20:59.491Z,77.71
2023-03-13T20:21:59.594Z,77.67
2023-03-13T20:22:59.653Z,77.67
2023-03-13T20:23:59.761Z,77.57
2023-03-13T20:24:59.884Z,77.57
2023-03-13T20:25:59.962Z,77.57
2023-03-13T20:27:00.016Z,77.57
2023-03-13T20:28:00.169Z,77.57
2023-03-13T20:29:00.184Z,77.47
2023-03-13T20:30:00.243Z,77.47
2023-03-13T20:31:00.444Z,77.57
2023-03-13T20:32:00.449Z,77.57
2023-03-13T20:33:00.566Z,77.57
2023-03-13T20:34:00.618Z,77.67
2023-03-13T20:35:00.666Z,77.67
2023-03-13T20:36:00.798Z,77.81
2023-03-13T20:37:00.863Z,77.81
2023-03-13T20:38:00.921Z,78.02
2023-03-13T20:39:00.982Z,78.22
2023-03-13T20:40:01.082Z,78.22
2023-03-13T20:41:01.124Z,78.42
2023-03-13T20:42:02.969Z,78.42
2023-03-13T20:43:01.277Z,78.32